sensor_id;sensor_type;location;lat;lon;timestamp;temperature;humidity
41630;DHT22;27322;49.488;8.480;2024-02-23T00:01:15;10.30;99.90
41630;DHT22;27322;49.488;8.480;2024-02-23T00:03:41;10.40;99.90
41630;DHT22;27322;49.488;8.480;2024-02-23T00:06:06;10.30;99.90
41630;DHT22;27322;49.488;8.480;2024-02-23T00:08:34;10.30;99.90
41630;DHT22;27322;49.488;8.480;2024-02-23T00:10:59;10.30;99.90
41630;DHT22;27322;49.488;8.480;2024-02-23T00:13:25;10.30;99.90
41630;DHT22;27322;49.488;8.480;2024-02-23T00:15:51;10.30;99.90
41630;DHT22;27322;49.488;8.480;2024-02-23T00:18:17;10.30;99.90
41630;DHT22;27322;49.488;8.480;2024-02-23T00:20:42;10.20;99.90
41630;DHT22;27322;49.488;8.480;2024-02-23T00:23:08;10.20;99.90
41630;DHT22;27322;49.488;8.480;2024-02-23T00:25:33;10.10;99.90
41630;DHT22;27322;49.488;8.480;2024-02-23T00:27:59;10.10;99.90
41630;DHT22;27322;49.488;8.480;2024-02-23T00:30:25;10.00;99.90
41630;DHT22;27322;49.488;8.480;2024-02-23T00:32:50;10.00;99.90
41630;DHT22;27322;49.488;8.480;2024-02-23T00:35:16;9.90;99.90
41630;DHT22;27322;49.488;8.480;2024-02-23T00:37:41;9.90;99.90
41630;DHT22;27322;49.488;8.480;2024-02-23T00:40:07;9.90;99.90
41630;DHT22;27322;49.488;8.480;2024-02-23T00:42:34;9.80;99.90
41630;DHT22;27322;49.488;8.480;2024-02-23T00:45:00;9.80;99.90
41630;DHT22;27322;49.488;8.480;2024-02-23T00:47:26;9.70;99.90
41630;DHT22;27322;49.488;8.480;2024-02-23T00:49:52;9.70;99.90
41630;DHT22;27322;49.488;8.480;2024-02-23T00:52:17;9.70;99.90
41630;DHT22;27322;49.488;8.480;2024-02-23T00:54:43;9.70;99.90
41630;DHT22;27322;49.488;8.480;2024-02-23T00:57:08;9.70;99.90
41630;DHT22;27322;49.488;8.480;2024-02-23T00:59:34;9.60;99.90
41630;DHT22;27322;49.488;8.480;2024-02-23T01:02:00;9.60;99.90
41630;DHT22;27322;49.488;8.480;2024-02-23T01:04:25;9.60;99.90
41630;DHT22;27322;49.488;8.480;2024-02-23T01:06:51;9.60;99.90
41630;DHT22;27322;49.488;8.480;2024-02-23T01:09:17;9.60;99.90
41630;DHT22;27322;49.488;8.480;2024-02-23T01:11:48;9.60;99.90
41630;DHT22;27322;49.488;8.480;2024-02-23T01:14:14;9.50;99.90
41630;DHT22;27322;49.488;8.480;2024-02-23T01:16:39;9.60;99.90
41630;DHT22;27322;49.488;8.480;2024-02-23T01:19:05;9.50;99.90
41630;DHT22;27322;49.488;8.480;2024-02-23T01:21:31;9.50;99.90
41630;DHT22;27322;49.488;8.480;2024-02-23T01:23:56;9.50;99.90
41630;DHT22;27322;49.488;8.480;2024-02-23T01:26:23;9.50;99.90
41630;DHT22;27322;49.488;8.480;2024-02-23T01:28:48;9.50;99.90
41630;DHT22;27322;49.488;8.480;2024-02-23T01:31:14;9.50;99.90
41630;DHT22;27322;49.488;8.480;2024-02-23T01:33:40;9.50;99.90
41630;DHT22;27322;49.488;8.480;2024-02-23T01:36:06;9.50;99.90
41630;DHT22;27322;49.488;8.480;2024-02-23T01:38:32;9.50;99.90
41630;DHT22;27322;49.488;8.480;2024-02-23T01:41:01;9.50;99.90
41630;DHT22;27322;49.488;8.480;2024-02-23T01:43:27;9.50;99.90
41630;DHT22;27322;49.488;8.480;2024-02-23T01:45:53;9.40;99.90
41630;DHT22;27322;49.488;8.480;2024-02-23T01:48:19;9.20;99.90
41630;DHT22;27322;49.488;8.480;2024-02-23T01:50:45;9.10;99.90
41630;DHT22;27322;49.488;8.480;2024-02-23T01:53:12;9.00;99.90
41630;DHT22;27322;49.488;8.480;2024-02-23T01:55:41;8.80;99.90
41630;DHT22;27322;49.488;8.480;2024-02-23T01:58:07;8.70;99.90
41630;DHT22;27322;49.488;8.480;2024-02-23T02:00:35;8.70;99.90
41630;DHT22;27322;49.488;8.480;2024-02-23T02:03:00;8.60;99.90
41630;DHT22;27322;49.488;8.480;2024-02-23T02:05:26;8.60;99.90
41630;DHT22;27322;49.488;8.480;2024-02-23T02:07:53;8.60;99.90
41630;DHT22;27322;49.488;8.480;2024-02-23T02:10:24;8.60;99.90
41630;DHT22;27322;49.488;8.480;2024-02-23T02:12:50;8.60;99.90
41630;DHT22;27322;49.488;8.480;2024-02-23T02:15:16;8.60;99.90
41630;DHT22;27322;49.488;8.480;2024-02-23T02:17:41;8.60;99.90
41630;DHT22;27322;49.488;8.480;2024-02-23T02:20:11;8.50;99.90
41630;DHT22;27322;49.488;8.480;2024-02-23T02:22:37;8.50;99.90
41630;DHT22;27322;49.488;8.480;2024-02-23T02:25:03;8.60;99.90
41630;DHT22;27322;49.488;8.480;2024-02-23T02:27:29;8.50;99.90
41630;DHT22;27322;49.488;8.480;2024-02-23T02:29:55;8.50;99.90
41630;DHT22;27322;49.488;8.480;2024-02-23T02:32:20;8.60;99.90
41630;DHT22;27322;49.488;8.480;2024-02-23T02:34:46;8.60;99.90
41630;DHT22;27322;49.488;8.480;2024-02-23T02:37:11;8.60;99.90
41630;DHT22;27322;49.488;8.480;2024-02-23T02:39:37;8.60;99.90
41630;DHT22;27322;49.488;8.480;2024-02-23T02:42:02;8.50;99.90
41630;DHT22;27322;49.488;8.480;2024-02-23T02:44:28;8.60;99.90
41630;DHT22;27322;49.488;8.480;2024-02-23T02:46:58;8.50;99.90
41630;DHT22;27322;49.488;8.480;2024-02-23T02:49:24;8.60;99.90
41630;DHT22;27322;49.488;8.480;2024-02-23T02:51:50;8.50;99.90
41630;DHT22;27322;49.488;8.480;2024-02-23T02:54:16;8.50;99.90
41630;DHT22;27322;49.488;8.480;2024-02-23T02:56:46;8.50;99.90
41630;DHT22;27322;49.488;8.480;2024-02-23T02:59:12;8.50;99.90
41630;DHT22;27322;49.488;8.480;2024-02-23T03:01:38;8.50;99.90
41630;DHT22;27322;49.488;8.480;2024-02-23T03:04:04;8.60;99.90
41630;DHT22;27322;49.488;8.480;2024-02-23T03:06:30;8.60;99.90
41630;DHT22;27322;49.488;8.480;2024-02-23T03:08:55;8.60;99.90
41630;DHT22;27322;49.488;8.480;2024-02-23T03:11:21;8.60;99.90
41630;DHT22;27322;49.488;8.480;2024-02-23T03:13:46;8.60;99.90
41630;DHT22;27322;49.488;8.480;2024-02-23T03:16:20;8.60;99.90
41630;DHT22;27322;49.488;8.480;2024-02-23T03:18:48;8.60;99.90
41630;DHT22;27322;49.488;8.480;2024-02-23T03:21:14;8.60;99.90
41630;DHT22;27322;49.488;8.480;2024-02-23T03:23:40;8.60;99.90
41630;DHT22;27322;49.488;8.480;2024-02-23T03:26:07;8.60;99.90
41630;DHT22;27322;49.488;8.480;2024-02-23T03:28:32;8.70;99.90
41630;DHT22;27322;49.488;8.480;2024-02-23T03:30:59;8.60;99.90
41630;DHT22;27322;49.488;8.480;2024-02-23T03:33:25;8.60;99.90
41630;DHT22;27322;49.488;8.480;2024-02-23T03:35:50;8.60;99.90
41630;DHT22;27322;49.488;8.480;2024-02-23T03:38:16;8.60;99.90
41630;DHT22;27322;49.488;8.480;2024-02-23T03:40:41;8.60;99.90
41630;DHT22;27322;49.488;8.480;2024-02-23T03:43:07;8.60;99.90
41630;DHT22;27322;49.488;8.480;2024-02-23T03:45:33;8.60;99.90
41630;DHT22;27322;49.488;8.480;2024-02-23T03:47:59;8.70;99.90
41630;DHT22;27322;49.488;8.480;2024-02-23T03:50:25;8.60;99.90
41630;DHT22;27322;49.488;8.480;2024-02-23T03:52:50;8.60;99.90
41630;DHT22;27322;49.488;8.480;2024-02-23T03:55:16;8.60;99.90
41630;DHT22;27322;49.488;8.480;2024-02-23T03:57:41;8.60;99.90
41630;DHT22;27322;49.488;8.480;2024-02-23T04:00:07;8.60;99.90
41630;DHT22;27322;49.488;8.480;2024-02-23T04:02:34;8.60;99.90
41630;DHT22;27322;49.488;8.480;2024-02-23T04:05:00;8.60;99.90
41630;DHT22;27322;49.488;8.480;2024-02-23T04:07:25;8.50;99.90
41630;DHT22;27322;49.488;8.480;2024-02-23T04:09:51;8.50;99.90
41630;DHT22;27322;49.488;8.480;2024-02-23T04:12:20;8.50;99.90
41630;DHT22;27322;49.488;8.480;2024-02-23T04:14:46;8.50;99.90
41630;DHT22;27322;49.488;8.480;2024-02-23T04:17:12;8.50;99.90
41630;DHT22;27322;49.488;8.480;2024-02-23T04:19:37;8.50;99.90
41630;DHT22;27322;49.488;8.480;2024-02-23T04:22:05;8.40;99.90
41630;DHT22;27322;49.488;8.480;2024-02-23T04:24:31;8.40;99.90
41630;DHT22;27322;49.488;8.480;2024-02-23T04:26:57;8.40;99.90
41630;DHT22;27322;49.488;8.480;2024-02-23T04:29:22;8.40;99.90
41630;DHT22;27322;49.488;8.480;2024-02-23T04:31:48;8.40;99.90
41630;DHT22;27322;49.488;8.480;2024-02-23T04:34:15;8.40;99.90
41630;DHT22;27322;49.488;8.480;2024-02-23T04:36:42;8.40;99.90
41630;DHT22;27322;49.488;8.480;2024-02-23T04:39:07;8.40;99.90
41630;DHT22;27322;49.488;8.480;2024-02-23T04:41:33;8.40;99.90
41630;DHT22;27322;49.488;8.480;2024-02-23T04:43:59;8.40;99.90
41630;DHT22;27322;49.488;8.480;2024-02-23T04:46:26;8.40;99.90
41630;DHT22;27322;49.488;8.480;2024-02-23T04:48:51;8.50;99.90
41630;DHT22;27322;49.488;8.480;2024-02-23T04:51:17;8.40;99.90
41630;DHT22;27322;49.488;8.480;2024-02-23T04:53:43;8.40;99.90
41630;DHT22;27322;49.488;8.480;2024-02-23T04:56:08;8.50;99.90
41630;DHT22;27322;49.488;8.480;2024-02-23T04:58:34;8.50;99.90
41630;DHT22;27322;49.488;8.480;2024-02-23T05:01:00;8.50;99.90
41630;DHT22;27322;49.488;8.480;2024-02-23T05:03:25;8.50;99.90
41630;DHT22;27322;49.488;8.480;2024-02-23T05:05:52;8.50;99.90
41630;DHT22;27322;49.488;8.480;2024-02-23T05:08:22;8.50;99.90
41630;DHT22;27322;49.488;8.480;2024-02-23T05:10:50;8.50;99.90
41630;DHT22;27322;49.488;8.480;2024-02-23T05:13:16;8.50;99.90
41630;DHT22;27322;49.488;8.480;2024-02-23T05:15:42;8.50;99.90
41630;DHT22;27322;49.488;8.480;2024-02-23T05:18:07;8.50;99.90
41630;DHT22;27322;49.488;8.480;2024-02-23T05:20:33;8.50;99.90
41630;DHT22;27322;49.488;8.480;2024-02-23T05:22:58;8.50;99.90
41630;DHT22;27322;49.488;8.480;2024-02-23T05:25:24;8.50;99.90
41630;DHT22;27322;49.488;8.480;2024-02-23T05:27:51;8.50;99.90
41630;DHT22;27322;49.488;8.480;2024-02-23T05:30:17;8.50;99.90
41630;DHT22;27322;49.488;8.480;2024-02-23T05:32:42;8.50;99.90
41630;DHT22;27322;49.488;8.480;2024-02-23T05:35:09;8.50;99.90
41630;DHT22;27322;49.488;8.480;2024-02-23T05:37:35;8.50;99.90
41630;DHT22;27322;49.488;8.480;2024-02-23T05:40:01;8.50;99.90
41630;DHT22;27322;49.488;8.480;2024-02-23T05:42:29;8.50;99.90
41630;DHT22;27322;49.488;8.480;2024-02-23T05:44:55;8.50;99.90
41630;DHT22;27322;49.488;8.480;2024-02-23T05:47:20;8.50;99.90
41630;DHT22;27322;49.488;8.480;2024-02-23T05:49:47;8.50;99.90
41630;DHT22;27322;49.488;8.480;2024-02-23T05:52:12;8.50;99.90
41630;DHT22;27322;49.488;8.480;2024-02-23T05:54:38;8.50;99.90
41630;DHT22;27322;49.488;8.480;2024-02-23T05:57:04;8.50;99.90
41630;DHT22;27322;49.488;8.480;2024-02-23T05:59:30;8.50;99.90
41630;DHT22;27322;49.488;8.480;2024-02-23T06:01:55;8.50;99.90
41630;DHT22;27322;49.488;8.480;2024-02-23T06:04:24;8.50;99.90
41630;DHT22;27322;49.488;8.480;2024-02-23T06:06:50;8.50;99.90
41630;DHT22;27322;49.488;8.480;2024-02-23T06:09:16;8.50;99.90
41630;DHT22;27322;49.488;8.480;2024-02-23T06:11:42;8.50;99.90
41630;DHT22;27322;49.488;8.480;2024-02-23T06:14:08;8.50;99.90
41630;DHT22;27322;49.488;8.480;2024-02-23T06:16:34;8.50;99.90
41630;DHT22;27322;49.488;8.480;2024-02-23T06:18:59;8.50;99.90
41630;DHT22;27322;49.488;8.480;2024-02-23T06:21:25;8.50;99.90
41630;DHT22;27322;49.488;8.480;2024-02-23T06:23:50;8.40;99.90
41630;DHT22;27322;49.488;8.480;2024-02-23T06:26:16;8.50;99.90
41630;DHT22;27322;49.488;8.480;2024-02-23T06:28:42;8.50;99.90
41630;DHT22;27322;49.488;8.480;2024-02-23T06:31:08;8.50;99.90
41630;DHT22;27322;49.488;8.480;2024-02-23T06:33:34;8.50;99.90
41630;DHT22;27322;49.488;8.480;2024-02-23T06:36:00;8.50;99.90
41630;DHT22;27322;49.488;8.480;2024-02-23T06:38:27;8.50;99.90
41630;DHT22;27322;49.488;8.480;2024-02-23T06:40:52;8.50;99.90
41630;DHT22;27322;49.488;8.480;2024-02-23T06:43:18;8.50;99.90
41630;DHT22;27322;49.488;8.480;2024-02-23T06:45:44;8.50;99.90
41630;DHT22;27322;49.488;8.480;2024-02-23T06:48:10;8.50;99.90
41630;DHT22;27322;49.488;8.480;2024-02-23T06:50:35;8.50;99.90
41630;DHT22;27322;49.488;8.480;2024-02-23T06:53:01;8.50;99.90
41630;DHT22;27322;49.488;8.480;2024-02-23T06:55:27;8.50;99.90
41630;DHT22;27322;49.488;8.480;2024-02-23T06:57:54;8.50;99.90
41630;DHT22;27322;49.488;8.480;2024-02-23T07:00:23;8.50;99.90
41630;DHT22;27322;49.488;8.480;2024-02-23T07:02:48;8.50;99.90
41630;DHT22;27322;49.488;8.480;2024-02-23T07:05:14;8.50;99.90
41630;DHT22;27322;49.488;8.480;2024-02-23T07:07:40;8.50;99.90
41630;DHT22;27322;49.488;8.480;2024-02-23T07:10:07;8.50;99.90
41630;DHT22;27322;49.488;8.480;2024-02-23T07:12:34;8.50;99.90
41630;DHT22;27322;49.488;8.480;2024-02-23T07:14:59;8.50;99.90
41630;DHT22;27322;49.488;8.480;2024-02-23T07:17:25;8.50;99.90
41630;DHT22;27322;49.488;8.480;2024-02-23T07:19:50;8.50;99.90
41630;DHT22;27322;49.488;8.480;2024-02-23T07:22:17;8.50;99.90
41630;DHT22;27322;49.488;8.480;2024-02-23T07:24:46;8.50;99.90
41630;DHT22;27322;49.488;8.480;2024-02-23T07:27:12;8.40;99.90
41630;DHT22;27322;49.488;8.480;2024-02-23T07:29:37;8.50;99.90
41630;DHT22;27322;49.488;8.480;2024-02-23T07:32:03;8.40;99.90
41630;DHT22;27322;49.488;8.480;2024-02-23T07:34:30;8.40;99.90
41630;DHT22;27322;49.488;8.480;2024-02-23T07:36:56;8.40;99.90
41630;DHT22;27322;49.488;8.480;2024-02-23T07:39:22;8.40;99.90
41630;DHT22;27322;49.488;8.480;2024-02-23T07:41:48;8.40;99.90
41630;DHT22;27322;49.488;8.480;2024-02-23T07:44:13;8.40;99.90
41630;DHT22;27322;49.488;8.480;2024-02-23T07:46:39;8.40;99.90
41630;DHT22;27322;49.488;8.480;2024-02-23T07:49:05;8.40;99.90
41630;DHT22;27322;49.488;8.480;2024-02-23T07:51:35;8.40;99.90
41630;DHT22;27322;49.488;8.480;2024-02-23T07:54:01;8.40;99.90
41630;DHT22;27322;49.488;8.480;2024-02-23T07:56:27;8.40;99.90
41630;DHT22;27322;49.488;8.480;2024-02-23T07:58:54;8.50;99.90
41630;DHT22;27322;49.488;8.480;2024-02-23T08:01:22;8.50;99.90
41630;DHT22;27322;49.488;8.480;2024-02-23T08:03:48;8.60;99.90
41630;DHT22;27322;49.488;8.480;2024-02-23T08:06:14;8.60;99.90
41630;DHT22;27322;49.488;8.480;2024-02-23T08:08:39;8.60;99.90
41630;DHT22;27322;49.488;8.480;2024-02-23T08:11:05;8.60;99.90
41630;DHT22;27322;49.488;8.480;2024-02-23T08:13:31;8.70;99.90
41630;DHT22;27322;49.488;8.480;2024-02-23T08:15:57;8.60;99.90
41630;DHT22;27322;49.488;8.480;2024-02-23T08:18:23;8.70;99.90
41630;DHT22;27322;49.488;8.480;2024-02-23T08:20:49;8.70;99.90
41630;DHT22;27322;49.488;8.480;2024-02-23T08:23:15;8.70;99.90
41630;DHT22;27322;49.488;8.480;2024-02-23T08:25:41;8.70;99.90
41630;DHT22;27322;49.488;8.480;2024-02-23T08:28:06;8.70;99.90
41630;DHT22;27322;49.488;8.480;2024-02-23T08:30:32;8.70;99.90
41630;DHT22;27322;49.488;8.480;2024-02-23T08:32:58;8.70;99.90
41630;DHT22;27322;49.488;8.480;2024-02-23T08:35:24;8.70;99.90
41630;DHT22;27322;49.488;8.480;2024-02-23T08:37:50;8.70;99.90
41630;DHT22;27322;49.488;8.480;2024-02-23T08:40:15;8.80;99.90
41630;DHT22;27322;49.488;8.480;2024-02-23T08:42:41;8.80;99.90
41630;DHT22;27322;49.488;8.480;2024-02-23T08:45:08;8.90;99.90
41630;DHT22;27322;49.488;8.480;2024-02-23T08:47:35;8.90;99.90
41630;DHT22;27322;49.488;8.480;2024-02-23T08:50:01;8.90;99.90
41630;DHT22;27322;49.488;8.480;2024-02-23T08:52:28;8.90;99.90
41630;DHT22;27322;49.488;8.480;2024-02-23T08:54:53;8.90;99.90
41630;DHT22;27322;49.488;8.480;2024-02-23T08:57:19;8.90;99.90
41630;DHT22;27322;49.488;8.480;2024-02-23T08:59:45;8.90;99.90
41630;DHT22;27322;49.488;8.480;2024-02-23T09:02:11;8.90;99.90
41630;DHT22;27322;49.488;8.480;2024-02-23T09:04:37;9.00;99.90
41630;DHT22;27322;49.488;8.480;2024-02-23T09:07:03;9.10;99.90
41630;DHT22;27322;49.488;8.480;2024-02-23T09:09:28;9.00;99.90
41630;DHT22;27322;49.488;8.480;2024-02-23T09:11:54;9.10;99.90
41630;DHT22;27322;49.488;8.480;2024-02-23T09:14:20;9.10;99.90
41630;DHT22;27322;49.488;8.480;2024-02-23T09:16:45;9.10;99.90
41630;DHT22;27322;49.488;8.480;2024-02-23T09:19:17;9.10;99.90
41630;DHT22;27322;49.488;8.480;2024-02-23T09:21:42;9.20;99.90
41630;DHT22;27322;49.488;8.480;2024-02-23T09:24:08;9.20;99.90
41630;DHT22;27322;49.488;8.480;2024-02-23T09:26:33;9.30;99.90
41630;DHT22;27322;49.488;8.480;2024-02-23T09:28:59;9.30;99.90
41630;DHT22;27322;49.488;8.480;2024-02-23T09:31:25;9.30;99.90
41630;DHT22;27322;49.488;8.480;2024-02-23T09:33:51;9.30;99.90
41630;DHT22;27322;49.488;8.480;2024-02-23T09:36:17;9.40;99.90
41630;DHT22;27322;49.488;8.480;2024-02-23T09:38:43;9.40;99.90
41630;DHT22;27322;49.488;8.480;2024-02-23T09:41:20;9.40;99.90
41630;DHT22;27322;49.488;8.480;2024-02-23T09:43:47;9.40;99.90
41630;DHT22;27322;49.488;8.480;2024-02-23T09:46:17;9.50;99.90
41630;DHT22;27322;49.488;8.480;2024-02-23T09:48:47;9.50;99.90
41630;DHT22;27322;49.488;8.480;2024-02-23T09:51:14;9.60;99.90
41630;DHT22;27322;49.488;8.480;2024-02-23T09:53:41;9.60;99.90
41630;DHT22;27322;49.488;8.480;2024-02-23T09:56:08;9.60;99.90
41630;DHT22;27322;49.488;8.480;2024-02-23T09:58:35;9.60;99.90
41630;DHT22;27322;49.488;8.480;2024-02-23T10:01:03;9.60;99.90
41630;DHT22;27322;49.488;8.480;2024-02-23T10:03:29;9.70;99.90
41630;DHT22;27322;49.488;8.480;2024-02-23T10:05:58;9.70;99.90
41630;DHT22;27322;49.488;8.480;2024-02-23T10:08:23;9.70;99.90
41630;DHT22;27322;49.488;8.480;2024-02-23T10:10:49;9.70;99.90
41630;DHT22;27322;49.488;8.480;2024-02-23T10:13:23;9.80;99.90
41630;DHT22;27322;49.488;8.480;2024-02-23T10:15:50;9.80;99.90
41630;DHT22;27322;49.488;8.480;2024-02-23T10:18:16;9.90;99.90
41630;DHT22;27322;49.488;8.480;2024-02-23T10:20:42;10.00;99.90
41630;DHT22;27322;49.488;8.480;2024-02-23T10:23:09;10.10;99.90
41630;DHT22;27322;49.488;8.480;2024-02-23T10:25:35;10.20;99.90
41630;DHT22;27322;49.488;8.480;2024-02-23T10:28:02;10.30;99.90
41630;DHT22;27322;49.488;8.480;2024-02-23T10:30:27;10.50;99.90
41630;DHT22;27322;49.488;8.480;2024-02-23T10:32:56;10.70;99.90
41630;DHT22;27322;49.488;8.480;2024-02-23T10:35:22;10.90;99.90
41630;DHT22;27322;49.488;8.480;2024-02-23T10:37:49;11.00;99.90
41630;DHT22;27322;49.488;8.480;2024-02-23T10:40:20;11.30;99.90
41630;DHT22;27322;49.488;8.480;2024-02-23T10:42:48;11.50;99.90
41630;DHT22;27322;49.488;8.480;2024-02-23T10:45:17;11.60;99.90
41630;DHT22;27322;49.488;8.480;2024-02-23T10:47:44;11.60;99.90
41630;DHT22;27322;49.488;8.480;2024-02-23T10:50:09;11.50;99.90
41630;DHT22;27322;49.488;8.480;2024-02-23T10:52:36;11.40;99.90
41630;DHT22;27322;49.488;8.480;2024-02-23T10:55:04;11.30;99.90
41630;DHT22;27322;49.488;8.480;2024-02-23T10:57:31;11.30;99.90
41630;DHT22;27322;49.488;8.480;2024-02-23T10:59:58;11.20;99.90
41630;DHT22;27322;49.488;8.480;2024-02-23T11:02:25;11.10;99.90
41630;DHT22;27322;49.488;8.480;2024-02-23T11:04:52;11.00;99.90
41630;DHT22;27322;49.488;8.480;2024-02-23T11:07:19;11.00;99.90
41630;DHT22;27322;49.488;8.480;2024-02-23T11:09:52;10.90;99.90
41630;DHT22;27322;49.488;8.480;2024-02-23T11:12:29;10.90;99.90
41630;DHT22;27322;49.488;8.480;2024-02-23T11:14:59;10.90;99.90
41630;DHT22;27322;49.488;8.480;2024-02-23T11:17:32;11.00;99.90
41630;DHT22;27322;49.488;8.480;2024-02-23T11:19:58;11.00;99.90
41630;DHT22;27322;49.488;8.480;2024-02-23T11:22:25;11.00;99.90
41630;DHT22;27322;49.488;8.480;2024-02-23T11:25:03;11.00;99.90
41630;DHT22;27322;49.488;8.480;2024-02-23T11:27:35;10.90;99.90
41630;DHT22;27322;49.488;8.480;2024-02-23T11:30:08;10.80;99.90
41630;DHT22;27322;49.488;8.480;2024-02-23T11:32:40;10.80;99.90
41630;DHT22;27322;49.488;8.480;2024-02-23T11:35:07;10.70;99.90
41630;DHT22;27322;49.488;8.480;2024-02-23T11:37:53;10.70;99.90
41630;DHT22;27322;49.488;8.480;2024-02-23T11:40:30;10.70;99.90
41630;DHT22;27322;49.488;8.480;2024-02-23T11:42:56;10.80;99.90
41630;DHT22;27322;49.488;8.480;2024-02-23T11:45:22;10.80;99.90
41630;DHT22;27322;49.488;8.480;2024-02-23T11:47:49;10.90;99.90
41630;DHT22;27322;49.488;8.480;2024-02-23T11:50:14;10.90;99.90
41630;DHT22;27322;49.488;8.480;2024-02-23T11:52:42;10.90;99.90
41630;DHT22;27322;49.488;8.480;2024-02-23T11:55:07;10.90;99.90
41630;DHT22;27322;49.488;8.480;2024-02-23T11:57:36;10.80;99.90
41630;DHT22;27322;49.488;8.480;2024-02-23T12:00:02;10.80;99.90
41630;DHT22;27322;49.488;8.480;2024-02-23T12:02:28;10.70;99.90
41630;DHT22;27322;49.488;8.480;2024-02-23T12:04:54;10.70;99.90
41630;DHT22;27322;49.488;8.480;2024-02-23T12:07:19;10.60;99.90
41630;DHT22;27322;49.488;8.480;2024-02-23T12:09:47;10.60;99.90
41630;DHT22;27322;49.488;8.480;2024-02-23T12:12:13;10.60;99.90
41630;DHT22;27322;49.488;8.480;2024-02-23T12:14:39;10.60;99.90
41630;DHT22;27322;49.488;8.480;2024-02-23T12:17:05;10.60;99.90
41630;DHT22;27322;49.488;8.480;2024-02-23T12:19:38;10.60;99.90
41630;DHT22;27322;49.488;8.480;2024-02-23T12:22:04;10.60;99.90
41630;DHT22;27322;49.488;8.480;2024-02-23T12:24:30;10.70;99.90
41630;DHT22;27322;49.488;8.480;2024-02-23T12:26:56;10.60;99.90
41630;DHT22;27322;49.488;8.480;2024-02-23T12:29:22;10.60;99.90
41630;DHT22;27322;49.488;8.480;2024-02-23T12:31:47;10.60;99.90
41630;DHT22;27322;49.488;8.480;2024-02-23T12:34:13;10.60;99.90
41630;DHT22;27322;49.488;8.480;2024-02-23T12:36:39;10.50;99.90
41630;DHT22;27322;49.488;8.480;2024-02-23T12:39:05;10.50;99.90
41630;DHT22;27322;49.488;8.480;2024-02-23T12:41:31;10.40;99.90
41630;DHT22;27322;49.488;8.480;2024-02-23T12:43:57;10.40;99.90
41630;DHT22;27322;49.488;8.480;2024-02-23T12:46:23;10.30;99.90
41630;DHT22;27322;49.488;8.480;2024-02-23T12:48:49;10.30;99.90
41630;DHT22;27322;49.488;8.480;2024-02-23T12:51:15;10.30;99.90
41630;DHT22;27322;49.488;8.480;2024-02-23T12:53:42;10.20;99.90
41630;DHT22;27322;49.488;8.480;2024-02-23T12:56:09;10.30;99.90
41630;DHT22;27322;49.488;8.480;2024-02-23T12:58:35;10.30;99.90
41630;DHT22;27322;49.488;8.480;2024-02-23T13:01:02;10.30;99.90
41630;DHT22;27322;49.488;8.480;2024-02-23T13:03:28;10.30;99.90
41630;DHT22;27322;49.488;8.480;2024-02-23T13:05:54;10.40;99.90
41630;DHT22;27322;49.488;8.480;2024-02-23T13:08:21;10.40;99.90
41630;DHT22;27322;49.488;8.480;2024-02-23T13:10:47;10.40;99.90
41630;DHT22;27322;49.488;8.480;2024-02-23T13:13:13;10.40;99.90
41630;DHT22;27322;49.488;8.480;2024-02-23T13:15:41;10.50;99.90
41630;DHT22;27322;49.488;8.480;2024-02-23T13:18:06;10.50;99.90
41630;DHT22;27322;49.488;8.480;2024-02-23T13:20:32;10.50;99.90
41630;DHT22;27322;49.488;8.480;2024-02-23T13:22:58;10.50;99.90
41630;DHT22;27322;49.488;8.480;2024-02-23T13:25:23;10.50;99.90
41630;DHT22;27322;49.488;8.480;2024-02-23T13:27:49;10.60;99.90
41630;DHT22;27322;49.488;8.480;2024-02-23T13:30:15;10.60;99.90
41630;DHT22;27322;49.488;8.480;2024-02-23T13:32:40;10.60;99.90
41630;DHT22;27322;49.488;8.480;2024-02-23T13:35:06;10.60;99.90
41630;DHT22;27322;49.488;8.480;2024-02-23T13:37:34;10.60;99.90
41630;DHT22;27322;49.488;8.480;2024-02-23T13:40:00;10.60;99.90
41630;DHT22;27322;49.488;8.480;2024-02-23T13:42:26;10.60;99.90
41630;DHT22;27322;49.488;8.480;2024-02-23T13:44:51;10.60;99.90
41630;DHT22;27322;49.488;8.480;2024-02-23T13:47:17;10.60;99.90
41630;DHT22;27322;49.488;8.480;2024-02-23T13:49:43;10.60;99.90
41630;DHT22;27322;49.488;8.480;2024-02-23T13:52:08;10.60;99.90
41630;DHT22;27322;49.488;8.480;2024-02-23T13:54:34;10.70;99.90
41630;DHT22;27322;49.488;8.480;2024-02-23T13:56:59;10.60;99.90
41630;DHT22;27322;49.488;8.480;2024-02-23T13:59:25;10.60;99.90
41630;DHT22;27322;49.488;8.480;2024-02-23T14:01:51;10.70;99.90
41630;DHT22;27322;49.488;8.480;2024-02-23T14:04:17;10.70;99.90
41630;DHT22;27322;49.488;8.480;2024-02-23T14:06:42;10.60;99.90
41630;DHT22;27322;49.488;8.480;2024-02-23T14:09:09;10.60;99.90
41630;DHT22;27322;49.488;8.480;2024-02-23T14:11:35;10.70;99.90
41630;DHT22;27322;49.488;8.480;2024-02-23T14:14:00;10.60;99.90
41630;DHT22;27322;49.488;8.480;2024-02-23T14:16:28;10.60;99.90
41630;DHT22;27322;49.488;8.480;2024-02-23T14:18:54;10.60;99.90
41630;DHT22;27322;49.488;8.480;2024-02-23T14:21:19;10.60;99.90
41630;DHT22;27322;49.488;8.480;2024-02-23T14:23:46;10.60;99.90
41630;DHT22;27322;49.488;8.480;2024-02-23T14:26:12;10.50;99.90
41630;DHT22;27322;49.488;8.480;2024-02-23T14:28:38;10.60;99.90
41630;DHT22;27322;49.488;8.480;2024-02-23T14:31:04;10.50;99.90
41630;DHT22;27322;49.488;8.480;2024-02-23T14:33:30;10.50;99.90
41630;DHT22;27322;49.488;8.480;2024-02-23T14:35:55;10.30;99.90
41630;DHT22;27322;49.488;8.480;2024-02-23T14:38:21;10.30;99.90
41630;DHT22;27322;49.488;8.480;2024-02-23T14:40:47;10.30;99.90
41630;DHT22;27322;49.488;8.480;2024-02-23T14:43:13;10.20;99.90
41630;DHT22;27322;49.488;8.480;2024-02-23T14:45:38;10.20;99.90
41630;DHT22;27322;49.488;8.480;2024-02-23T14:48:04;10.20;99.90
41630;DHT22;27322;49.488;8.480;2024-02-23T14:50:30;10.10;99.90
41630;DHT22;27322;49.488;8.480;2024-02-23T14:52:55;10.10;99.90
41630;DHT22;27322;49.488;8.480;2024-02-23T14:55:21;10.10;99.90
41630;DHT22;27322;49.488;8.480;2024-02-23T14:57:47;10.10;99.90
41630;DHT22;27322;49.488;8.480;2024-02-23T15:00:13;10.20;99.90
41630;DHT22;27322;49.488;8.480;2024-02-23T15:02:39;10.10;99.90
41630;DHT22;27322;49.488;8.480;2024-02-23T15:05:05;10.20;99.90
41630;DHT22;27322;49.488;8.480;2024-02-23T15:07:32;10.10;99.90
41630;DHT22;27322;49.488;8.480;2024-02-23T15:09:57;10.10;99.90
41630;DHT22;27322;49.488;8.480;2024-02-23T15:12:23;10.10;99.90
41630;DHT22;27322;49.488;8.480;2024-02-23T15:14:50;10.10;99.90
41630;DHT22;27322;49.488;8.480;2024-02-23T15:17:16;10.10;99.90
41630;DHT22;27322;49.488;8.480;2024-02-23T15:19:41;10.10;99.90
41630;DHT22;27322;49.488;8.480;2024-02-23T15:22:07;10.10;99.90
41630;DHT22;27322;49.488;8.480;2024-02-23T15:24:34;10.10;99.90
41630;DHT22;27322;49.488;8.480;2024-02-23T15:27:00;10.20;99.90
41630;DHT22;27322;49.488;8.480;2024-02-23T15:29:25;10.20;99.90
41630;DHT22;27322;49.488;8.480;2024-02-23T15:31:51;10.20;99.90
41630;DHT22;27322;49.488;8.480;2024-02-23T15:34:17;10.30;99.90